Time;durP1;ratioP1;P1;durP2;ratioP2;P2;SDS_P1;SDS_P2;PMS_P1;PMS_P2;Temp;Humidity;BMP_temperature;BMP_pressure;BME280_temperature;BME280_humidity;BME280_pressure;Samples;Min_cycle;Max_cycle;Signal;HPM_P1;HPM_P2
2022/01/19 05:03:50;;;;;;;22.52;11.32;;;4.80;99.90;;;;;;4954862;29;20396;-72
2022/01/19 05:06:19;;;;;;;19.92;11.00;;;4.80;99.90;;;;;;4973346;28;20577;-70
2022/01/19 05:08:57;;;;;;;18.95;11.00;;;4.80;99.90;;;;;;4973377;28;20230;-70
2022/01/19 05:14:09;;;;;;;21.38;11.50;;;4.90;99.90;;;;;;4954171;29;20274;-70
2022/01/19 05:16:37;;;;;;;29.23;13.13;;;4.90;99.90;;;;;;4972416;28;20720;-71
2022/01/19 05:19:04;;;;;;;19.42;11.23;;;4.90;99.90;;;;;;4962600;28;20212;-71
2022/01/19 05:21:31;;;;;;;19.05;11.15;;;4.90;99.90;;;;;;4961624;28;20236;-70
2022/01/19 05:24:03;;;;;;;28.15;12.20;;;4.90;99.90;;;;;;4977357;23;20229;-70
2022/01/19 05:26:29;;;;;;;22.35;11.45;;;4.90;99.90;;;;;;4962529;28;20204;-70
2022/01/19 05:28:56;;;;;;;25.20;11.55;;;4.80;99.90;;;;;;4973605;28;20204;-71
2022/01/19 05:31:23;;;;;;;19.98;12.65;;;4.90;99.90;;;;;;4973135;28;20259;-70
2022/01/19 05:33:51;;;;;;;27.85;12.13;;;4.90;99.90;;;;;;4969347;28;20236;-70
2022/01/19 05:36:18;;;;;;;18.02;12.02;;;4.90;99.90;;;;;;4953791;28;20229;-69
2022/01/19 05:38:44;;;;;;;23.13;13.32;;;4.90;99.90;;;;;;4953678;28;20221;-69
2022/01/19 05:41:11;;;;;;;25.40;13.32;;;4.90;99.90;;;;;;4953300;28;20736;-69
2022/01/19 05:43:38;;;;;;;26.55;12.50;;;4.90;99.90;;;;;;4965068;28;20324;-69
2022/01/19 05:46:04;;;;;;;22.88;11.38;;;4.90;99.90;;;;;;4965565;28;20744;-70
2022/01/19 05:48:31;;;;;;;20.02;11.63;;;4.90;99.90;;;;;;4953784;28;20693;-69
2022/01/19 05:50:59;;;;;;;25.10;12.70;;;4.90;99.90;;;;;;4952863;28;20286;-70
2022/01/19 05:53:26;;;;;;;21.65;10.90;;;4.90;99.90;;;;;;4954436;28;20287;-70
2022/01/19 05:55:52;;;;;;;26.30;12.23;;;4.90;99.90;;;;;;4938723;29;20662;-69
2022/01/19 05:58:19;;;;;;;20.13;9.90;;;4.90;99.90;;;;;;4954150;28;20706;-69
2022/01/19 06:00:46;;;;;;;21.75;12.63;;;4.90;99.90;;;;;;4953523;28;20205;-68
2022/01/19 06:03:12;;;;;;;24.90;11.95;;;4.90;99.90;;;;;;4953732;28;20205;-69
2022/01/19 06:05:39;;;;;;;19.70;13.00;;;4.90;99.90;;;;;;4950829;28;20213;-69
2022/01/19 06:08:17;;;;;;;21.88;12.30;;;4.90;99.90;;;;;;4950134;28;20257;-69
2022/01/19 06:10:44;;;;;;;21.95;11.98;;;4.90;99.90;;;;;;4953125;28;20223;-70
2022/01/19 06:13:11;;;;;;;26.15;12.30;;;4.90;99.90;;;;;;4953661;28;20346;-69
2022/01/19 06:15:38;;;;;;;21.20;12.48;;;4.90;99.90;;;;;;4953373;28;20209;-70
2022/01/19 06:18:04;;;;;;;21.00;12.45;;;4.90;99.90;;;;;;4972221;28;20584;-69
2022/01/19 06:20:31;;;;;;;21.83;13.52;;;4.90;99.90;;;;;;4956005;28;20276;-70
2022/01/19 06:22:58;;;;;;;19.90;10.70;;;4.90;99.90;;;;;;4952555;28;20212;-70
2022/01/19 06:25:26;;;;;;;24.38;13.35;;;4.90;99.90;;;;;;4953334;28;20729;-72
2022/01/19 06:27:53;;;;;;;22.02;13.27;;;4.90;99.90;;;;;;4958037;28;20670;-70
2022/01/19 06:30:19;;;;;;;21.05;12.70;;;4.90;99.90;;;;;;4954307;28;20647;-69
2022/01/19 06:32:46;;;;;;;21.88;12.68;;;4.90;99.90;;;;;;4953211;28;20205;-68
2022/01/19 06:35:13;;;;;;;23.27;12.95;;;4.90;99.90;;;;;;4953780;28;20635;-69
2022/01/19 06:37:40;;;;;;;23.20;13.45;;;4.90;99.90;;;;;;4952581;28;20233;-69
2022/01/19 06:40:10;;;;;;;24.88;12.52;;;4.90;99.90;;;;;;4944234;28;20273;-69
2022/01/19 06:42:38;;;;;;;36.03;18.23;;;4.90;99.90;;;;;;4952514;28;20685;-69
2022/01/19 06:45:07;;;;;;;34.08;16.17;;;4.90;99.90;;;;;;4952721;28;20327;-70
2022/01/19 06:47:33;;;;;;;26.08;13.60;;;4.90;99.90;;;;;;4953237;28;20209;-68
2022/01/19 06:50:00;;;;;;;23.58;13.15;;;4.90;99.90;;;;;;4952563;28;20304;-68
2022/01/19 06:52:27;;;;;;;32.53;17.70;;;5.00;99.90;;;;;;4965934;28;20291;-69
2022/01/19 06:54:54;;;;;;;25.30;13.85;;;5.00;99.90;;;;;;4965334;28;20229;-69
2022/01/19 06:57:20;;;;;;;24.92;13.70;;;5.00;99.90;;;;;;4937846;28;20762;-69
2022/01/19 06:59:51;;;;;;;31.42;14.82;;;5.00;99.90;;;;;;4950813;28;20594;-69
2022/01/19 07:02:18;;;;;;;30.15;13.80;;;5.00;99.90;;;;;;4954271;28;20213;-69
2022/01/19 07:04:49;;;;;;;63.83;30.63;;;5.00;99.90;;;;;;4952314;28;20236;-69
2022/01/19 07:07:16;;;;;;;27.77;15.90;;;5.00;99.90;;;;;;4952237;28;20264;-69
2022/01/19 07:09:42;;;;;;;32.55;15.68;;;5.00;99.90;;;;;;4951237;28;20236;-69
2022/01/19 07:12:10;;;;;;;43.60;19.17;;;5.00;99.90;;;;;;4950017;28;20205;-69
2022/01/19 07:14:36;;;;;;;29.73;16.55;;;5.00;99.90;;;;;;4947521;29;20245;-69
2022/01/19 07:17:05;;;;;;;32.67;17.60;;;5.00;99.90;;;;;;4952861;28;20225;-69
2022/01/19 07:19:32;;;;;;;42.15;18.92;;;5.00;99.90;;;;;;4951957;28;20210;-69
2022/01/19 07:21:59;;;;;;;106.88;44.88;;;5.00;99.90;;;;;;4953390;28;20212;-69
2022/01/19 07:24:26;;;;;;;32.13;17.98;;;4.90;99.90;;;;;;4952360;28;20608;-69
2022/01/19 07:26:52;;;;;;;35.55;17.88;;;4.80;99.90;;;;;;4960539;28;20201;-69
2022/01/19 07:29:19;;;;;;;34.15;17.15;;;4.80;99.90;;;;;;4961577;28;20227;-69
2022/01/19 07:31:46;;;;;;;43.13;19.50;;;4.80;99.90;;;;;;4955964;28;20237;-69
2022/01/19 07:34:14;;;;;;;47.88;25.40;;;4.70;99.90;;;;;;4952611;28;20279;-69
2022/01/19 07:36:41;;;;;;;39.47;20.63;;;4.60;99.90;;;;;;4950454;28;20233;-69
2022/01/19 07:39:09;;;;;;;52.63;25.35;;;4.60;99.90;;;;;;4949442;28;20220;-69
2022/01/19 07:41:36;;;;;;;37.95;18.65;;;4.60;99.90;;;;;;4958324;28;20255;-69
2022/01/19 07:44:03;;;;;;;44.38;22.52;;;4.60;99.90;;;;;;4962654;28;20221;-69
2022/01/19 07:46:30;;;;;;;38.63;19.45;;;4.50;99.90;;;;;;4952731;28;20264;-69
2022/01/19 07:48:56;;;;;;;38.72;19.00;;;4.50;99.90;;;;;;4956513;28;20216;-70
2022/01/19 07:51:24;;;;;;;46.33;20.30;;;4.50;99.90;;;;;;4963472;28;20204;-69
2022/01/19 07:53:51;;;;;;;42.22;19.55;;;4.50;99.90;;;;;;4964139;28;20279;-70
2022/01/19 07:56:18;;;;;;;49.38;20.67;;;4.50;99.90;;;;;;4975668;28;20205;-69
2022/01/19 07:58:45;;;;;;;37.72;19.77;;;4.50;99.90;;;;;;4964293;28;20621;-68
2022/01/19 08:01:11;;;;;;;37.72;18.30;;;4.50;99.90;;;;;;4973119;28;20208;-69
2022/01/19 08:03:38;;;;;;;37.80;18.17;;;4.50;99.90;;;;;;4966466;28;20335;-69
2022/01/19 08:06:05;;;;;;;42.85;20.63;;;4.50;99.90;;;;;;4957508;28;20212;-70
2022/01/19 08:08:35;;;;;;;35.05;19.65;;;4.50;99.90;;;;;;4936670;28;20210;-70
2022/01/19 08:11:02;;;;;;;48.35;21.63;;;4.50;99.90;;;;;;4936482;29;20610;-69
2022/01/19 08:13:28;;;;;;;41.97;19.70;;;4.40;99.90;;;;;;4955179;28;20233;-69
2022/01/19 08:15:55;;;;;;;43.40;17.75;;;4.40;99.90;;;;;;4955678;28;20267;-69
2022/01/19 08:18:22;;;;;;;41.17;21.25;;;4.40;99.90;;;;;;4968270;28;20240;-70
2022/01/19 08:20:48;;;;;;;46.60;20.33;;;4.40;99.90;;;;;;4965643;28;20681;-69
2022/01/19 08:23:15;;;;;;;45.10;20.45;;;4.40;99.90;;;;;;4971927;28;20287;-69
2022/01/19 08:25:43;;;;;;;33.60;18.00;;;4.40;99.90;;;;;;4949531;28;20218;-70
2022/01/19 08:28:10;;;;;;;37.22;17.80;;;4.40;99.90;;;;;;4957856;28;20576;-70
2022/01/19 08:30:37;;;;;;;38.15;19.00;;;4.40;99.90;;;;;;4954040;28;20217;-70
2022/01/19 08:33:04;;;;;;;34.20;17.88;;;4.40;99.90;;;;;;4953541;28;20230;-70
2022/01/19 08:35:30;;;;;;;34.50;17.17;;;4.40;99.90;;;;;;4955685;28;20213;-70
2022/01/19 08:37:57;;;;;;;31.05;16.60;;;4.40;99.90;;;;;;4955505;28;20280;-70
2022/01/19 08:40:28;;;;;;;37.22;18.50;;;4.40;99.90;;;;;;4954223;28;20209;-69
2022/01/19 08:42:56;;;;;;;41.92;17.35;;;4.40;99.90;;;;;;4954006;28;20255;-69
2022/01/19 08:45:23;;;;;;;40.13;17.73;;;4.40;99.90;;;;;;4959351;28;20682;-69
2022/01/19 08:47:50;;;;;;;44.22;17.55;;;4.40;99.90;;;;;;4962823;28;20248;-70
2022/01/19 08:50:17;;;;;;;42.72;18.65;;;4.50;99.90;;;;;;4959164;28;20409;-70
2022/01/19 08:52:45;;;;;;;39.95;16.92;;;4.50;99.90;;;;;;4958305;28;20200;-71
2022/01/19 08:55:12;;;;;;;36.22;18.30;;;4.50;99.90;;;;;;4972789;28;20237;-69
2022/01/19 08:57:39;;;;;;;36.83;17.30;;;4.60;99.90;;;;;;4955200;28;20240;-71
2022/01/19 09:00:10;;;;;;;84.00;33.88;;;4.50;99.90;;;;;;4950987;28;20637;-70
2022/01/19 09:02:37;;;;;;;36.42;15.00;;;4.50;99.90;;;;;;4953846;29;20202;-68
2022/01/19 09:05:06;;;;;;;31.42;15.00;;;4.50;99.90;;;;;;4954777;28;20229;-68
2022/01/19 09:07:32;;;;;;;26.55;15.23;;;4.60;99.90;;;;;;4954732;28;20268;-67
2022/01/19 09:09:59;;;;;;;34.95;14.85;;;4.60;99.90;;;;;;4954398;28;20201;-67
2022/01/19 09:12:26;;;;;;;27.27;13.43;;;4.50;99.90;;;;;;4945717;28;20640;-67
2022/01/19 09:14:53;;;;;;;27.40;13.63;;;4.60;99.90;;;;;;4955140;28;20260;-68
2022/01/19 09:17:21;;;;;;;26.23;14.30;;;4.60;99.90;;;;;;4955865;28;20631;-68
2022/01/19 09:19:48;;;;;;;27.88;13.30;;;4.60;99.90;;;;;;4956007;28;20673;-67
2022/01/19 09:22:14;;;;;;;29.95;12.82;;;4.60;99.90;;;;;;4953478;28;20202;-69
2022/01/19 09:24:43;;;;;;;27.10;13.70;;;4.50;99.90;;;;;;4955117;28;20412;-68
2022/01/19 09:27:10;;;;;;;31.17;14.05;;;4.60;99.90;;;;;;4955401;28;20217;-69
2022/01/19 09:29:41;;;;;;;21.20;12.25;;;4.60;99.90;;;;;;4953570;28;20217;-70
2022/01/19 09:32:10;;;;;;;30.27;15.23;;;4.70;99.90;;;;;;4949035;28;20691;-71
2022/01/19 09:34:40;;;;;;;27.13;14.48;;;4.70;99.90;;;;;;4935672;29;20236;-69
2022/01/19 09:37:07;;;;;;;26.83;13.00;;;4.80;99.90;;;;;;4939812;29;20523;-69
2022/01/19 09:39:33;;;;;;;30.08;15.35;;;4.80;99.90;;;;;;4954586;28;20205;-69
2022/01/19 09:42:00;;;;;;;25.55;14.35;;;4.70;99.90;;;;;;4954441;28;20253;-69
2022/01/19 09:44:29;;;;;;;20.92;13.05;;;4.70;99.90;;;;;;4957113;28;20272;-70
2022/01/19 09:46:56;;;;;;;28.35;14.75;;;4.70;99.90;;;;;;4954789;28;20213;-70
2022/01/19 09:49:24;;;;;;;28.75;14.30;;;4.80;99.90;;;;;;4954164;28;20218;-69
2022/01/19 09:51:54;;;;;;;24.15;13.82;;;4.80;99.90;;;;;;4973567;28;20208;-69
2022/01/19 09:54:22;;;;;;;24.60;13.60;;;4.80;99.90;;;;;;4973212;28;20239;-70
2022/01/19 09:56:50;;;;;;;21.85;12.63;;;4.80;99.90;;;;;;4964819;28;20217;-70
2022/01/19 09:59:17;;;;;;;27.20;13.13;;;4.80;99.90;;;;;;4954175;28;20221;-70
2022/01/19 10:01:52;;;;;;;21.92;12.30;;;4.80;99.90;;;;;;4953728;28;20198;-69
2022/01/19 10:04:21;;;;;;;22.65;13.95;;;4.80;99.90;;;;;;4953517;28;20236;-69
2022/01/19 10:06:48;;;;;;;25.98;12.98;;;4.90;99.90;;;;;;4947760;28;20217;-69
2022/01/19 10:09:25;;;;;;;24.73;13.25;;;4.90;99.90;;;;;;4945600;28;20209;-69
2022/01/19 10:17:29;;;;;;;26.77;12.63;;;4.90;99.90;;;;;;4940836;29;20204;-70
2022/01/19 10:19:56;;;;;;;23.25;13.35;;;4.90;99.90;;;;;;4953231;28;20259;-71
2022/01/19 10:22:25;;;;;;;19.70;12.82;;;4.90;99.90;;;;;;4951074;28;20213;-70
2022/01/19 10:24:56;;;;;;;26.73;13.13;;;4.90;99.90;;;;;;4952042;28;20240;-70
2022/01/19 10:27:28;;;;;;;19.88;12.23;;;4.90;99.90;;;;;;4951840;28;20205;-69
2022/01/19 10:30:11;;;;;;;22.52;12.27;;;4.90;99.90;;;;;;4951611;28;20731;-70
2022/01/19 10:32:40;;;;;;;23.08;12.90;;;4.90;99.90;;;;;;4951310;28;20213;-69
2022/01/19 10:35:16;;;;;;;18.02;11.70;;;4.90;99.90;;;;;;4950396;28;20853;-70
2022/01/19 10:37:43;;;;;;;28.58;12.93;;;4.90;99.90;;;;;;4948830;28;20292;-67
2022/01/19 10:40:17;;;;;;;26.42;14.82;;;4.90;99.90;;;;;;4959121;28;20586;-70
2022/01/19 10:42:44;;;;;;;22.45;12.65;;;5.00;99.90;;;;;;4951859;28;20209;-68
2022/01/19 10:45:12;;;;;;;19.10;11.30;;;5.10;99.90;;;;;;4951628;28;20280;-70
2022/01/19 10:47:47;;;;;;;23.27;11.98;;;5.00;99.90;;;;;;4952306;28;20205;-69
2022/01/19 10:50:19;;;;;;;19.63;11.40;;;5.00;99.90;;;;;;4952875;28;20212;-69
2022/01/19 10:52:47;;;;;;;23.95;12.45;;;5.00;99.90;;;;;;4960772;28;20275;-70
2022/01/19 10:55:27;;;;;;;19.23;11.10;;;5.00;99.90;;;;;;4952462;28;20221;-70
2022/01/19 10:57:55;;;;;;;22.77;11.45;;;4.90;99.90;;;;;;4949214;29;20213;-71
2022/01/19 11:00:24;;;;;;;20.70;11.50;;;4.90;99.90;;;;;;4952012;28;20232;-70
2022/01/19 11:02:53;;;;;;;19.00;12.18;;;5.00;99.90;;;;;;4966968;28;20736;-70
2022/01/19 11:05:40;;;;;;;17.60;12.23;;;4.90;99.90;;;;;;4962664;28;20233;-70
2022/01/19 11:08:08;;;;;;;23.90;12.57;;;4.90;99.90;;;;;;4953989;28;20268;-70
2022/01/19 11:10:36;;;;;;;16.48;11.50;;;4.90;99.90;;;;;;4953791;28;20284;-70
2022/01/19 11:13:05;;;;;;;15.82;11.85;;;4.80;99.90;;;;;;4953073;28;20216;-70
2022/01/19 11:15:33;;;;;;;20.95;13.63;;;4.80;99.90;;;;;;4957458;28;20228;-69
2022/01/19 11:18:00;;;;;;;22.45;12.77;;;4.80;99.90;;;;;;4944912;28;20720;-71
2022/01/19 11:20:28;;;;;;;14.88;10.45;;;4.80;99.90;;;;;;4952234;28;20651;-70
2022/01/19 11:23:13;;;;;;;18.40;12.63;;;4.70;99.90;;;;;;4951665;28;20205;-70
2022/01/19 11:25:50;;;;;;;19.48;14.07;;;4.80;99.90;;;;;;4963043;28;20700;-70
2022/01/19 11:28:34;;;;;;;17.40;13.02;;;4.70;99.90;;;;;;4970772;28;20220;-71
2022/01/19 11:31:03;;;;;;;21.92;12.77;;;4.70;99.90;;;;;;4955856;28;20201;-70
2022/01/19 11:33:31;;;;;;;15.70;12.63;;;4.70;99.90;;;;;;4964401;28;20275;-69
2022/01/19 11:36:01;;;;;;;19.42;14.05;;;4.60;99.90;;;;;;4959840;28;20264;-68
2022/01/19 11:38:41;;;;;;;24.48;15.02;;;4.60;99.90;;;;;;4945979;28;20293;-69
2022/01/19 11:41:44;;;;;;;25.20;14.55;;;4.70;99.90;;;;;;4950445;28;20212;-69
2022/01/19 11:44:14;;;;;;;32.92;18.70;;;4.60;99.90;;;;;;4893557;29;20243;-69
2022/01/19 11:46:43;;;;;;;21.15;14.48;;;4.60;99.90;;;;;;4892339;29;20333;-69
2022/01/19 11:49:12;;;;;;;35.80;20.27;;;4.60;99.90;;;;;;4925472;28;20205;-69
2022/01/19 11:51:41;;;;;;;27.17;16.40;;;4.60;99.90;;;;;;4951148;28;20241;-69
2022/01/19 11:54:12;;;;;;;24.98;15.43;;;4.60;99.90;;;;;;4959632;28;20252;-69
2022/01/19 11:57:07;;;;;;;25.05;16.55;;;4.60;99.90;;;;;;4971067;28;20209;-69
2022/01/19 11:59:58;;;;;;;22.10;14.50;;;4.60;99.90;;;;;;4949455;28;20237;-69
2022/01/19 12:02:37;;;;;;;24.25;14.65;;;4.60;99.90;;;;;;4952539;28;20213;-69
2022/01/19 12:05:17;;;;;;;23.33;14.68;;;4.60;99.90;;;;;;4955461;28;20260;-69
2022/01/19 12:07:48;;;;;;;25.55;15.23;;;4.60;99.90;;;;;;4951185;28;20256;-69
2022/01/19 12:10:19;;;;;;;24.55;15.65;;;4.70;99.90;;;;;;4959712;28;20198;-69
2022/01/19 12:13:29;;;;;;;29.95;17.23;;;4.70;99.90;;;;;;4961107;28;20249;-68
2022/01/19 12:16:00;;;;;;;32.22;16.80;;;4.70;99.90;;;;;;4951057;28;20209;-69
2022/01/19 12:18:49;;;;;;;23.83;15.15;;;4.70;99.90;;;;;;4952739;28;20331;-69
2022/01/19 12:21:37;;;;;;;32.10;18.95;;;4.70;99.90;;;;;;4950761;28;20626;-69
2022/01/19 12:24:19;;;;;;;63.22;33.28;;;4.70;99.90;;;;;;4939539;28;20249;-69
2022/01/19 12:26:50;;;;;;;52.65;28.70;;;4.60;99.90;;;;;;4944247;28;20209;-69
2022/01/19 12:29:36;;;;;;;35.20;18.60;;;4.60;99.90;;;;;;4946655;28;20209;-69
2022/01/19 12:32:06;;;;;;;36.95;21.48;;;4.60;99.90;;;;;;4948924;28;20787;-68
2022/01/19 12:34:41;;;;;;;29.80;17.60;;;4.60;99.90;;;;;;4954462;28;20240;-68
2022/01/19 12:37:08;;;;;;;26.40;16.92;;;4.60;99.90;;;;;;4957814;28;20698;-69
2022/01/19 12:39:43;;;;;;;36.15;18.10;;;4.70;99.90;;;;;;4953775;28;20710;-69
2022/01/19 12:42:18;;;;;;;31.33;17.35;;;4.60;99.90;;;;;;4952196;28;20223;-68
2022/01/19 12:44:47;;;;;;;24.52;16.20;;;4.70;99.90;;;;;;4954709;28;20705;-68
2022/01/19 12:47:46;;;;;;;24.20;16.05;;;4.70;99.90;;;;;;4954358;28;20257;-68
2022/01/19 12:50:39;;;;;;;29.20;16.88;;;4.60;99.90;;;;;;4959123;28;20205;-68
2022/01/19 12:53:10;;;;;;;28.88;17.45;;;4.60;99.90;;;;;;4943927;28;20666;-68
2022/01/19 12:55:41;;;;;;;30.13;17.35;;;4.60;99.90;;;;;;4950413;28;20205;-68
2022/01/19 12:58:14;;;;;;;31.55;18.75;;;4.60;99.90;;;;;;4949831;28;20217;-67
2022/01/19 13:00:42;;;;;;;27.85;17.35;;;4.60;99.90;;;;;;4951872;28;20352;-68
2022/01/19 13:03:21;;;;;;;32.88;21.00;;;4.60;99.90;;;;;;4948422;28;20217;-68
2022/01/19 13:05:51;;;;;;;26.83;16.50;;;4.60;99.90;;;;;;4957465;28;20208;-69
2022/01/19 13:08:27;;;;;;;27.98;16.92;;;4.60;99.90;;;;;;4955447;28;20578;-68
2022/01/19 13:11:02;;;;;;;30.77;17.80;;;4.60;99.90;;;;;;4954037;28;20234;-69
2022/01/19 13:13:29;;;;;;;31.30;20.52;;;4.60;99.90;;;;;;4952772;28;20221;-69
2022/01/19 13:15:58;;;;;;;24.85;15.57;;;4.60;99.90;;;;;;4957203;28;20292;-69
2022/01/19 13:18:36;;;;;;;31.88;18.52;;;4.60;99.90;;;;;;4958753;28;20205;-69
2022/01/19 13:21:06;;;;;;;25.73;16.10;;;4.60;99.90;;;;;;4953794;28;20221;-69
2022/01/19 13:23:34;;;;;;;33.45;21.92;;;4.60;99.90;;;;;;4947693;28;20530;-69
2022/01/19 13:26:05;;;;;;;30.45;17.60;;;4.70;99.90;;;;;;4946800;28;20289;-69
2022/01/19 13:28:34;;;;;;;28.42;18.10;;;4.70;99.90;;;;;;4954495;28;20208;-68
2022/01/19 13:31:12;;;;;;;28.67;17.35;;;4.70;99.90;;;;;;4945267;28;20346;-69
2022/01/19 13:33:40;;;;;;;29.98;17.90;;;4.70;99.90;;;;;;4939648;28;20275;-66
2022/01/19 13:36:08;;;;;;;30.75;20.25;;;4.60;99.90;;;;;;4949734;28;20288;-69
2022/01/19 13:38:37;;;;;;;32.00;19.13;;;4.60;99.90;;;;;;4945245;28;20225;-68
2022/01/19 13:41:08;;;;;;;31.95;17.98;;;4.60;99.90;;;;;;4948525;28;20628;-68
2022/01/19 13:43:36;;;;;;;33.72;20.88;;;4.60;99.90;;;;;;4944928;28;20244;-70
2022/01/19 13:46:13;;;;;;;30.85;17.77;;;4.60;99.90;;;;;;4949468;28;20205;-69
2022/01/19 13:48:43;;;;;;;29.17;19.45;;;4.60;99.90;;;;;;4942541;28;20209;-69
2022/01/19 13:51:12;;;;;;;34.17;18.58;;;4.50;99.90;;;;;;4945610;29;20208;-68
2022/01/19 13:53:41;;;;;;;33.90;18.95;;;4.60;99.90;;;;;;4948749;28;20257;-68
2022/01/19 13:56:10;;;;;;;34.20;21.42;;;4.60;99.90;;;;;;4932163;29;20819;-68
2022/01/19 13:58:41;;;;;;;31.20;18.88;;;4.60;99.90;;;;;;4940392;28;20220;-68
2022/01/19 14:01:14;;;;;;;46.67;26.13;;;4.60;99.90;;;;;;4944763;28;20215;-68
2022/01/19 14:03:49;;;;;;;40.72;21.20;;;4.60;99.90;;;;;;4949848;28;20264;-69
2022/01/19 14:06:24;;;;;;;44.58;24.95;;;4.60;99.90;;;;;;4932208;29;20703;-68
2022/01/19 14:08:50;;;;;;;43.38;24.50;;;4.60;99.90;;;;;;4946255;28;20235;-67
2022/01/19 14:11:25;;;;;;;35.58;19.60;;;4.60;99.90;;;;;;4949211;28;20205;-68
2022/01/19 14:13:59;;;;;;;43.15;26.02;;;4.60;99.90;;;;;;4936175;28;20279;-68
2022/01/19 14:16:28;;;;;;;48.58;28.05;;;4.60;99.90;;;;;;4948805;28;20212;-68
2022/01/19 14:19:13;;;;;;;37.60;22.13;;;4.70;99.90;;;;;;4948974;28;20236;-67
2022/01/19 14:22:00;;;;;;;41.97;23.70;;;4.70;99.90;;;;;;4936255;28;20505;-68
2022/01/19 14:24:28;;;;;;;59.40;30.77;;;4.70;99.90;;;;;;4939488;28;20332;-70
2022/01/19 14:26:58;;;;;;;44.13;24.85;;;4.70;99.90;;;;;;4947402;28;20209;-66
2022/01/19 14:29:26;;;;;;;37.80;20.42;;;4.70;99.90;;;;;;4943620;28;20208;-67
2022/01/19 14:31:55;;;;;;;53.78;26.98;;;4.70;99.90;;;;;;4939807;28;20217;-67
2022/01/19 14:34:37;;;;;;;43.92;23.60;;;4.70;99.90;;;;;;4949223;29;20300;-68
2022/01/19 14:37:11;;;;;;;44.97;24.88;;;4.70;99.90;;;;;;4947821;28;20637;-68
2022/01/19 14:39:50;;;;;;;42.55;24.60;;;4.80;99.90;;;;;;4948985;29;20231;-68
2022/01/19 14:42:21;;;;;;;48.13;27.15;;;4.80;99.90;;;;;;4941952;28;20209;-67
2022/01/19 14:44:58;;;;;;;38.50;20.10;;;4.80;99.90;;;;;;4940362;28;20529;-68
2022/01/19 14:47:36;;;;;;;38.58;21.17;;;4.80;99.90;;;;;;4942807;28;20541;-68
2022/01/19 14:50:17;;;;;;;41.40;22.80;;;4.80;99.90;;;;;;4948601;28;20229;-68
2022/01/19 14:52:44;;;;;;;33.75;20.75;;;4.80;99.90;;;;;;4932506;28;20304;-70
2022/01/19 14:55:11;;;;;;;34.95;19.08;;;4.80;99.90;;;;;;4937563;28;20240;-69
2022/01/19 14:57:39;;;;;;;29.40;17.25;;;4.80;99.90;;;;;;4943249;28;20223;-69
2022/01/19 15:00:07;;;;;;;37.42;21.58;;;4.80;99.90;;;;;;4941624;29;20224;-70
2022/01/19 15:02:34;;;;;;;33.47;20.98;;;4.80;99.90;;;;;;4940714;28;20275;-71
2022/01/19 15:05:00;;;;;;;36.40;20.17;;;4.80;99.90;;;;;;4940178;28;20268;-70
2022/01/19 15:07:27;;;;;;;37.55;20.45;;;4.80;99.90;;;;;;4940347;28;20566;-69
2022/01/19 15:09:54;;;;;;;38.33;21.65;;;4.80;99.90;;;;;;4947752;29;20209;-69
2022/01/19 15:12:21;;;;;;;32.13;18.48;;;4.80;99.90;;;;;;4946015;28;20213;-69
2022/01/19 15:14:49;;;;;;;32.38;19.83;;;4.90;99.90;;;;;;4940685;28;20576;-68
2022/01/19 15:17:15;;;;;;;37.60;20.65;;;4.80;99.90;;;;;;4950912;28;20232;-69
2022/01/19 15:19:43;;;;;;;39.95;22.05;;;4.90;99.90;;;;;;4945202;28;20228;-69
2022/01/19 15:22:09;;;;;;;32.53;19.30;;;4.80;99.90;;;;;;4939046;28;20349;-68
2022/01/19 15:24:36;;;;;;;34.95;20.20;;;4.90;99.90;;;;;;4935969;28;20245;-70
2022/01/19 15:27:03;;;;;;;28.20;19.63;;;4.90;99.90;;;;;;4944764;28;20212;-70
2022/01/19 15:29:29;;;;;;;36.47;20.20;;;4.90;99.90;;;;;;4948144;28;20212;-69
2022/01/19 15:31:57;;;;;;;32.75;16.73;;;4.80;99.90;;;;;;4946243;28;20205;-69
2022/01/19 15:34:24;;;;;;;27.25;15.95;;;4.90;99.90;;;;;;4935996;28;20289;-69
2022/01/19 15:36:51;;;;;;;29.98;18.48;;;4.90;99.90;;;;;;4939960;28;20221;-70
2022/01/19 15:39:17;;;;;;;30.85;19.08;;;4.90;99.90;;;;;;4940711;28;20283;-70
2022/01/19 15:41:44;;;;;;;35.55;17.63;;;4.90;99.90;;;;;;4943107;28;20209;-70
2022/01/19 15:44:11;;;;;;;36.05;20.02;;;5.00;99.90;;;;;;4939164;28;20225;-69
2022/01/19 15:46:38;;;;;;;34.55;20.63;;;4.90;99.90;;;;;;4945404;29;20212;-70
2022/01/19 15:49:07;;;;;;;29.48;18.65;;;4.90;99.90;;;;;;4946326;29;20250;-71
2022/01/19 15:51:34;;;;;;;34.03;20.80;;;4.90;99.90;;;;;;4945682;28;20947;-70
2022/01/19 15:54:00;;;;;;;36.65;20.13;;;4.90;99.90;;;;;;4942208;28;20775;-70
2022/01/19 15:56:27;;;;;;;32.67;18.35;;;4.90;99.90;;;;;;4941500;28;20213;-70
2022/01/19 15:58:54;;;;;;;36.45;19.50;;;4.90;99.90;;;;;;4936168;28;20202;-70
2022/01/19 16:01:20;;;;;;;33.40;18.83;;;4.90;99.90;;;;;;4932258;28;20361;-69
2022/01/19 16:03:47;;;;;;;28.80;14.77;;;4.90;99.90;;;;;;4934420;28;20229;-70
2022/01/19 16:06:15;;;;;;;33.75;19.33;;;4.90;99.90;;;;;;4935420;28;20209;-70
2022/01/19 16:08:42;;;;;;;31.15;17.90;;;4.90;99.90;;;;;;4938963;28;20212;-70
2022/01/19 16:11:09;;;;;;;33.47;19.58;;;4.90;99.90;;;;;;4937633;29;20217;-71
2022/01/19 16:13:35;;;;;;;46.95;26.55;;;4.80;99.90;;;;;;4936542;28;20226;-71
2022/01/19 16:16:02;;;;;;;38.72;23.55;;;4.80;99.90;;;;;;4938669;29;20272;-70
2022/01/19 16:18:29;;;;;;;36.47;20.23;;;4.80;99.90;;;;;;4942554;28;20225;-70
2022/01/19 16:20:56;;;;;;;31.58;19.20;;;4.80;99.90;;;;;;4938406;28;20655;-70
2022/01/19 16:26:10;;;;;;;28.92;18.05;;;4.90;99.90;;;;;;4957777;28;20225;-70
2022/01/19 16:28:37;;;;;;;33.53;19.55;;;4.80;99.90;;;;;;4949359;28;20296;-70
2022/01/19 16:31:05;;;;;;;32.35;19.85;;;4.80;99.90;;;;;;4951242;28;20209;-70
2022/01/19 16:33:34;;;;;;;38.72;19.60;;;4.80;99.90;;;;;;4949606;28;20225;-70
2022/01/19 16:36:01;;;;;;;33.70;17.50;;;4.80;99.90;;;;;;4942102;29;20304;-69
2022/01/19 16:38:29;;;;;;;32.47;17.77;;;4.80;99.90;;;;;;4953080;28;20229;-70
2022/01/19 16:40:56;;;;;;;33.95;19.85;;;4.80;99.90;;;;;;4954969;28;20284;-69
2022/01/19 16:43:24;;;;;;;33.58;18.35;;;4.80;99.90;;;;;;4948635;28;20628;-69
2022/01/19 16:45:51;;;;;;;27.75;14.75;;;4.80;99.90;;;;;;4954498;28;20217;-70
2022/01/19 16:48:20;;;;;;;23.50;14.85;;;4.70;99.90;;;;;;4952047;28;20222;-68
2022/01/19 16:50:48;;;;;;;27.48;16.27;;;4.70;99.90;;;;;;4954614;28;20292;-69
2022/01/19 16:53:15;;;;;;;30.60;16.48;;;4.80;99.90;;;;;;4950710;28;20205;-67
2022/01/19 16:55:45;;;;;;;27.08;16.08;;;4.70;99.90;;;;;;4953308;28;20217;-68
2022/01/19 16:58:12;;;;;;;24.15;14.15;;;4.70;99.90;;;;;;4946332;28;20205;-69
2022/01/19 17:00:39;;;;;;;23.98;13.60;;;4.70;99.90;;;;;;4947348;28;20221;-68
2022/01/19 17:03:05;;;;;;;23.42;14.55;;;4.70;99.90;;;;;;4950150;29;20627;-69
2022/01/19 17:05:32;;;;;;;28.55;17.33;;;4.70;99.90;;;;;;4948002;28;20677;-70
2022/01/19 17:07:59;;;;;;;23.45;13.73;;;4.70;99.90;;;;;;4952161;28;20268;-69
2022/01/19 17:10:27;;;;;;;23.75;15.23;;;4.70;99.90;;;;;;4948582;28;20209;-69
2022/01/19 17:13:00;;;;;;;27.75;15.05;;;4.80;99.90;;;;;;4953582;28;20292;-68
2022/01/19 17:15:40;;;;;;;24.90;14.52;;;4.80;99.90;;;;;;4950147;28;20237;-68
2022/01/19 17:18:07;;;;;;;30.65;17.75;;;4.80;99.90;;;;;;4945397;28;20598;-69
2022/01/19 17:20:37;;;;;;;23.77;15.20;;;4.80;99.90;;;;;;4948462;28;20765;-69
2022/01/19 17:23:05;;;;;;;23.88;15.65;;;4.80;99.90;;;;;;4950730;28;20209;-68
2022/01/19 17:25:32;;;;;;;23.10;14.05;;;4.80;99.90;;;;;;4951813;28;20277;-69
2022/01/19 17:28:01;;;;;;;21.67;15.57;;;4.80;99.90;;;;;;4949343;28;20304;-68
2022/01/19 17:30:27;;;;;;;22.23;13.10;;;4.80;99.90;;;;;;4949417;29;20296;-69
2022/01/19 17:32:54;;;;;;;26.50;14.70;;;4.80;99.90;;;;;;4946496;28;20365;-70
2022/01/19 17:35:21;;;;;;;21.80;12.38;;;4.80;99.90;;;;;;4948930;29;20644;-69
2022/01/19 17:37:48;;;;;;;23.50;14.95;;;4.80;99.90;;;;;;4942129;28;20686;-68
2022/01/19 17:40:15;;;;;;;20.48;13.93;;;4.90;99.90;;;;;;4953926;28;20225;-69
2022/01/19 17:42:41;;;;;;;25.08;14.05;;;4.80;99.90;;;;;;4948064;28;20213;-69
2022/01/19 17:45:16;;;;;;;20.80;12.60;;;4.80;99.90;;;;;;4947100;28;20798;-70
2022/01/19 17:47:52;;;;;;;25.13;15.13;;;4.90;99.90;;;;;;4955655;28;20208;-69
2022/01/19 17:50:34;;;;;;;22.40;13.40;;;4.90;99.90;;;;;;4951798;28;20220;-69
2022/01/19 17:53:01;;;;;;;27.20;14.65;;;5.00;99.90;;;;;;4941412;28;20214;-69
2022/01/19 17:55:29;;;;;;;25.05;13.73;;;5.00;99.90;;;;;;4955304;28;20225;-69
2022/01/19 17:57:56;;;;;;;22.13;14.43;;;5.00;99.90;;;;;;4947410;28;20206;-67
2022/01/19 18:00:24;;;;;;;26.77;15.05;;;5.00;99.90;;;;;;4952532;28;20230;-71
2022/01/19 18:02:51;;;;;;;20.00;13.32;;;5.00;99.90;;;;;;4942706;28;20221;-69